Geneva, Switzerland
Current Conditions -  °F | °C
As of 10:20 PM on Tuesday 21 Oct 2014 (Local Time) from LSGG Reporting Station
Rain Showers Rain Showers  
Wind Chill: 52°   Ceiling: 7000
Heat Index: 52°   Visibility: 6mi
Dew Point: 43°   Wind: 8mph
Humidity: 71%   Direction: 180°S
Pressure: 30.12"   Gusts: 20mph
Location:  46.21°N, 6.14°E
Report Text: LSGG 212020Z 18007G17KT 130V240 9999 -SHRA FEW030 BKN070 11/06 Q1020 REDZ NOSIG
Loading
Personal Weather Stations






























Interactive Weather Map
Tropical Storm Tracking
New forecast layout! Learn more

10-Day Weather Forecast

Advertisements
Track Severe Weather on mobile